createdAt,value
2023-03-23T16:56:46.774Z,99108.53
2023-03-23T16:59:15.637Z,99108.06
2023-03-23T17:01:44.748Z,99115.75
2023-03-23T17:04:13.070Z,99122.88
2023-03-23T17:06:44.140Z,99125.44
2023-03-23T17:09:13.139Z,99133.31
2023-03-23T17:11:41.547Z,99128.47
2023-03-23T17:14:10.282Z,99130.34
2023-03-23T17:16:40.933Z,99138.94
2023-03-23T17:19:09.774Z,99143.06
2023-03-23T17:21:38.238Z,99146.28
2023-03-23T17:24:09.711Z,99145.50
2023-03-23T17:26:38.203Z,99141.25
2023-03-23T17:29:07.309Z,99143.94
2023-03-23T17:31:36.516Z,99154.16
2023-03-23T19:42:01.852Z,99197.97
2023-03-23T19:44:30.314Z,99205.22
2023-03-23T19:46:59.362Z,99197.06
2023-03-23T19:49:29.536Z,99194.56
2023-03-23T19:52:06.408Z,99191.00
2023-03-23T19:54:39.909Z,99202.59
2023-03-23T19:57:10.045Z,99207.53
2023-03-23T19:59:40.350Z,99210.16
2023-03-23T20:02:08.979Z,99203.25
2023-03-23T20:04:40.074Z,99213.00
2023-03-23T20:07:09.956Z,99206.38
2023-03-23T20:09:39.419Z,99216.44
2023-03-23T20:12:09.644Z,99233.44
2023-03-23T20:14:44.178Z,99236.50
2023-03-23T20:17:14.549Z,99240.91
2023-03-23T20:19:45.284Z,99231.69
2023-03-23T20:22:14.403Z,99230.91
2023-03-23T20:24:45.285Z,99224.47
2023-03-23T20:27:14.340Z,99223.44
2023-03-23T20:29:43.125Z,99228.84
2023-03-23T20:32:12.470Z,99220.13
2023-03-23T20:34:41.232Z,99219.09
2023-03-23T20:37:16.084Z,99215.75
2023-03-23T20:39:46.296Z,99223.69
2023-03-23T20:42:15.509Z,99217.78
2023-03-23T20:44:44.436Z,99226.78
2023-03-23T20:47:13.229Z,99221.16
2023-03-23T20:49:42.163Z,99219.66
2023-03-23T20:52:14.384Z,99220.44
2023-03-23T20:54:44.846Z,99211.22
2023-03-23T20:57:13.478Z,99215.59
2023-03-23T20:59:43.042Z,99219.19
2023-03-23T21:02:15.366Z,99226.38
2023-03-23T21:04:45.267Z,99229.47
2023-03-23T21:07:15.734Z,99231.78
2023-03-23T21:09:44.782Z,99221.50
2023-03-23T21:12:13.353Z,99213.53
2023-03-23T21:14:41.723Z,99217.63
2023-03-23T21:17:10.715Z,99208.69
2023-03-23T21:19:39.825Z,99211.25
2023-03-23T21:22:09.844Z,99212.53
2023-03-23T21:24:40.469Z,99209.97
2023-03-23T21:27:09.289Z,99208.69
2023-03-23T23:58:59.779Z,99277.03
